Time;durP1;ratioP1;P1;durP2;ratioP2;P2;SDS_P1;SDS_P2;PMS_P1;PMS_P2;Temp;Humidity;BMP_temperature;BMP_pressure;BME280_temperature;BME280_humidity;BME280_pressure;Samples;Min_cycle;Max_cycle;Signal;HPM_P1;HPM_P2
2023/06/10 00:01:02;;;;;;;;;;;;;;;20.19;nan;99977.63;4959052;28;19937;-80
2023/06/10 00:03:28;;;;;;;;;;;;;;;;;;4961933;28;19919;-80
2023/06/10 00:05:53;;;;;;;;;;;;;;;20.05;nan;100001.16;4949013;28;19929;-80
2023/06/10 00:08:19;;;;;;;;;;;;;;;20.02;nan;99992.72;4972952;28;19941;-80
2023/06/10 00:10:45;;;;;;;;;;;;;;;19.96;nan;99985.59;4970113;28;19922;-81
2023/06/10 00:13:11;;;;;;;;;;;;;;;19.90;nan;99993.50;4976910;28;20468;-80
2023/06/10 00:15:36;;;;;;;;;;;;;;;19.87;nan;99972.47;4958336;28;19922;-81
2023/06/10 00:18:03;;;;;;;;;;;;;;;19.89;nan;99986.47;4972224;28;20012;-80
2023/06/10 00:20:30;;;;;;;;;;;;;;;19.87;nan;99985.88;4968712;28;20375;-81
2023/06/10 00:22:56;;;;;;;;;;;;;;;19.88;nan;99978.69;4951305;28;19918;-80
2023/06/10 00:25:22;;;;;;;;;;;;;;;19.93;nan;99990.34;4938333;29;20562;-80
2023/06/10 00:27:47;;;;;;;;;;;;;;;19.99;nan;99985.94;4955134;28;20001;-79
2023/06/10 00:30:13;;;;;;;;;;;;;;;20.07;nan;99977.59;4962880;28;19929;-80
2023/06/10 00:32:38;;;;;;;;;;;;;;;20.15;nan;99984.50;4968424;28;19922;-80
2023/06/10 00:35:04;;;;;;;;;;;;;;;20.20;nan;99981.94;4973187;28;20434;-80
2023/06/10 00:37:30;;;;;;;;;;;;;;;20.24;nan;99983.13;4945101;29;19919;-80
2023/06/10 00:39:55;;;;;;;;;;;;;;;20.34;nan;99987.94;4958584;28;19915;-80
2023/06/10 00:42:22;;;;;;;;;;;;;;;20.43;nan;99991.94;4955117;28;20352;-80
2023/06/10 00:44:47;;;;;;;;;;;;;;;20.48;nan;99981.31;4962963;28;19941;-80
2023/06/10 00:47:12;;;;;;;;;;;;;;;20.51;nan;99998.84;4967097;28;20369;-80
2023/06/10 00:49:38;;;;;;;;;;;;;;;20.41;nan;99991.34;4950453;28;19925;-80
2023/06/10 00:52:04;;;;;;;;;;;;;;;20.35;nan;99974.28;4964857;28;20375;-80
2023/06/10 00:54:29;;;;;;;;;;;;;;;20.32;nan;99990.03;4962385;28;19919;-80
2023/06/10 00:56:55;;;;;;;;;;;;;;;20.28;nan;99984.28;4975293;28;19918;-81
2023/06/10 00:59:21;;;;;;;;;;;;;;;20.21;nan;100002.34;4969767;28;19918;-80
2023/06/10 01:01:49;;;;;;;;;;;;;;;20.17;nan;100006.56;4976204;28;19914;-81
2023/06/10 01:04:14;;;;;;;;;;;;;;;20.07;nan;100001.75;4969012;28;19929;-78
2023/06/10 01:06:39;;;;;;;;;;;;;;;;;;4961532;28;20141;-79
2023/06/10 01:09:05;;;;;;;;;;;;;;;;;;4965204;28;19922;-80
2023/06/10 01:11:42;;;;;;;;;;;;;;;19.97;nan;100009.50;4960801;28;19960;-79
2023/06/10 01:14:09;;;;;;;;;;;;;;;19.90;nan;99987.28;4959978;28;19918;-81
2023/06/10 01:16:36;;;;;;;;;;;;;;;19.84;nan;99998.94;4970145;28;19922;-80
2023/06/10 01:19:01;;;;;;;;;;;;;;;19.78;nan;99989.09;4957866;28;19918;-81
2023/06/10 01:21:27;;;;;;;;;;;;;;;19.76;nan;100002.75;4972079;28;19925;-81
2023/06/10 01:23:53;;;;;;;;;;;;;;;19.73;nan;100008.56;4956572;28;20474;-80
2023/06/10 01:26:20;;;;;;;;;;;;;;;19.71;nan;99999.91;4954980;28;20299;-81
2023/06/10 01:28:58;;;;;;;;;;;;;;;19.69;nan;100002.03;4959851;28;19948;-81
2023/06/10 01:31:33;;;;;;;;;;;;;;;19.73;nan;100000.50;4967011;28;19925;-81
2023/06/10 01:33:59;;;;;;;;;;;;;;;19.71;nan;99991.84;4963684;28;19923;-80
2023/06/10 01:36:25;;;;;;;;;;;;;;;19.82;nan;99996.47;4951422;28;19926;-80
2023/06/10 01:38:52;;;;;;;;;;;;;;;19.80;nan;100003.13;4965594;28;19959;-80
2023/06/10 01:41:18;;;;;;;;;;;;;;;19.80;nan;100003.94;4965173;28;19930;-80
2023/06/10 01:43:44;;;;;;;;;;;;;;;19.78;nan;100005.19;4964880;28;19918;-80
2023/06/10 01:46:09;;;;;;;;;;;;;;;19.79;nan;100006.84;4958917;28;19926;-80
2023/06/10 01:48:34;;;;;;;;;;;;;;;19.86;nan;100003.03;4972189;28;19922;-80
2023/06/10 01:50:59;;;;;;;;;;;;;;;19.98;nan;100007.66;4955495;28;19925;-80
2023/06/10 01:53:25;;;;;;;;;;;;;;;19.96;nan;100001.69;4972985;28;19922;-81
2023/06/10 01:55:50;;;;;;;;;;;;;;;19.90;nan;100003.38;4967010;28;19914;-81
2023/06/10 01:58:15;;;;;;;;;;;;;;;19.86;nan;100003.03;4966795;28;19993;-81
2023/06/10 02:00:41;;;;;;;;;;;;;;;19.85;nan;100000.56;4960432;28;19922;-81
2023/06/10 02:03:06;;;;;;;;;;;;;;;19.85;nan;100006.75;4967164;28;19926;-80
2023/06/10 02:05:31;;;;;;;;;;;;;;;19.83;nan;100008.88;4942674;28;20328;-80
2023/06/10 02:07:57;;;;;;;;;;;;;;;19.85;nan;100001.38;4970513;28;20012;-81
2023/06/10 02:10:22;;;;;;;;;;;;;;;19.85;nan;100003.25;4957442;28;20047;-80
2023/06/10 02:12:47;;;;;;;;;;;;;;;19.73;nan;100003.19;4971844;28;19914;-80
2023/06/10 02:15:12;;;;;;;;;;;;;;;19.70;nan;99983.00;4967222;28;20361;-80
2023/06/10 02:17:38;;;;;;;;;;;;;;;19.66;nan;99997.91;4942985;28;19922;-80
2023/06/10 02:20:07;;;;;;;;;;;;;;;19.60;nan;99998.78;4965234;28;19918;-80
2023/06/10 02:22:32;;;;;;;;;;;;;;;19.48;nan;100006.75;4947497;29;19918;-80
2023/06/10 02:24:57;;;;;;;;;;;;;;;19.32;nan;100007.31;4965312;28;20008;-80
2023/06/10 02:27:22;;;;;;;;;;;;;;;19.27;nan;100004.50;4962921;28;19981;-80
2023/06/10 02:29:47;;;;;;;;;;;;;;;19.17;nan;100010.38;4958464;28;20576;-80
2023/06/10 02:32:13;;;;;;;;;;;;;;;19.15;nan;100012.44;4969239;28;19918;-80
2023/06/10 02:34:38;;;;;;;;;;;;;;;19.15;nan;100007.09;4943137;28;19925;-80
2023/06/10 02:37:03;;;;;;;;;;;;;;;19.09;nan;100008.78;4964293;28;20355;-80
2023/06/10 02:39:28;;;;;;;;;;;;;;;19.11;nan;100011.22;4958796;28;19919;-80
2023/06/10 02:41:53;;;;;;;;;;;;;;;19.15;nan;100012.44;4962411;28;19918;-80
2023/06/10 02:44:19;;;;;;;;;;;;;;;19.22;nan;100013.19;4970792;28;19914;-80
2023/06/10 02:46:44;;;;;;;;;;;;;;;19.21;nan;100005.38;4966454;28;20464;-80
2023/06/10 02:49:09;;;;;;;;;;;;;;;19.17;nan;100025.63;4956237;28;19919;-81
2023/06/10 02:51:35;;;;;;;;;;;;;;;;;;4966584;28;19918;-80
2023/06/10 02:54:00;;;;;;;;;;;;;;;19.08;nan;100011.69;4971345;28;19941;-80
2023/06/10 02:56:26;;;;;;;;;;;;;;;19.09;nan;100003.44;4962993;28;20434;-80
2023/06/10 02:58:51;;;;;;;;;;;;;;;19.10;nan;100012.28;4997205;28;19912;-80
2023/06/10 03:01:17;;;;;;;;;;;;;;;19.06;nan;100003.03;5013277;28;19966;-80
2023/06/10 03:03:43;;;;;;;;;;;;;;;18.99;nan;100013.00;4938905;28;19961;-80
2023/06/10 03:06:10;;;;;;;;;;;;;;;18.83;nan;100015.19;4971158;28;19922;-80
2023/06/10 03:08:35;;;;;;;;;;;;;;;18.73;nan;100008.66;4958262;28;19914;-80
2023/06/10 03:11:01;;;;;;;;;;;;;;;18.66;nan;100019.41;4966461;28;19925;-80
2023/06/10 03:13:26;;;;;;;;;;;;;;;18.61;nan;100008.53;4964474;28;19926;-80
2023/06/10 03:15:51;;;;;;;;;;;;;;;18.55;nan;100010.22;4958944;28;20440;-80
2023/06/10 03:18:16;;;;;;;;;;;;;;;18.49;nan;100002.22;4970244;28;19929;-80
2023/06/10 03:20:41;;;;;;;;;;;;;;;18.48;nan;100011.31;4973883;28;20005;-80
2023/06/10 03:23:07;;;;;;;;;;;;;;;18.44;nan;100006.38;4973108;28;20327;-80
2023/06/10 03:25:32;;;;;;;;;;;;;;;18.41;nan;100014.84;4973085;28;19914;-80
2023/06/10 03:27:57;;;;;;;;;;;;;;;18.37;nan;100005.59;4970457;28;19918;-80
2023/06/10 03:30:22;;;;;;;;;;;;;;;18.32;nan;100012.63;4965647;28;19914;-80
2023/06/10 03:32:48;;;;;;;;;;;;;;;18.33;nan;100011.59;4959758;28;19918;-79
2023/06/10 03:35:14;;;;;;;;;;;;;;;18.29;nan;100008.53;4945823;28;20075;-80
2023/06/10 03:37:40;;;;;;;;;;;;;;;18.27;nan;100013.28;4974108;28;20390;-80
2023/06/10 03:40:05;;;;;;;;;;;;;;;18.23;nan;99908.53;4962763;28;19972;-80
2023/06/10 03:42:31;;;;;;;;;;;;;;;18.22;nan;99997.06;4961583;28;19925;-80
2023/06/10 03:44:56;;;;;;;;;;;;;;;18.17;nan;100016.44;4972521;28;19968;-80
2023/06/10 03:47:21;;;;;;;;;;;;;;;;;;4954433;28;19918;-80
2023/06/10 03:49:46;;;;;;;;;;;;;;;17.96;nan;100017.56;4964897;28;19922;-79
2023/06/10 03:52:12;;;;;;;;;;;;;;;17.81;nan;100023.16;4972659;28;19918;-80
2023/06/10 03:54:37;;;;;;;;;;;;;;;17.70;nan;100015.75;5012776;28;20007;-80
2023/06/10 03:57:03;;;;;;;;;;;;;;;17.61;nan;100012.53;4964691;28;20025;-80
2023/06/10 03:59:28;;;;;;;;;;;;;;;17.56;nan;100025.69;4965527;28;19918;-79
2023/06/10 04:01:54;;;;;;;;;;;;;;;17.47;nan;100020.75;4953808;28;20029;-80
2023/06/10 04:04:19;;;;;;;;;;;;;;;17.40;nan;100010.13;4966747;28;20001;-80
2023/06/10 04:06:44;;;;;;;;;;;;;;;17.39;nan;100008.44;4947502;29;19925;-80
2023/06/10 04:09:09;;;;;;;;;;;;;;;17.39;nan;100025.31;4961834;28;19962;-80
2023/06/10 04:11:35;;;;;;;;;;;;;;;17.39;nan;100003.09;4967273;28;19921;-80
2023/06/10 04:14:01;;;;;;;;;;;;;;;17.36;nan;100025.72;4969629;28;19933;-80
2023/06/10 04:16:26;;;;;;;;;;;;;;;17.35;nan;100017.91;4971473;28;19929;-80
2023/06/10 04:18:51;;;;;;;;;;;;;;;17.33;nan;100015.47;4945320;29;20408;-80
2023/06/10 04:21:16;;;;;;;;;;;;;;;17.35;nan;99949.28;4945014;28;19918;-80
2023/06/10 04:23:41;;;;;;;;;;;;;;;17.47;nan;100020.75;4950066;28;19927;-80
2023/06/10 04:26:07;;;;;;;;;;;;;;;17.59;nan;100019.94;4962682;28;19947;-80
2023/06/10 04:28:32;;;;;;;;;;;;;;;;;;5004343;28;20531;-80
2023/06/10 04:30:57;;;;;;;;;;;;;;;17.99;nan;100035.03;4967945;28;19929;-80
2023/06/10 04:33:23;;;;;;;;;;;;;;;18.12;nan;100039.53;4966703;28;20437;-80
2023/06/10 04:35:48;;;;;;;;;;;;;;;18.24;nan;100040.47;4961726;28;19934;-80
2023/06/10 04:38:13;;;;;;;;;;;;;;;18.34;nan;100045.38;4972643;28;19929;-80
2023/06/10 04:40:38;;;;;;;;;;;;;;;;;;4966412;28;20383;-80
2023/06/10 04:43:04;;;;;;;;;;;;;;;18.45;nan;100045.50;4947389;28;19941;-80
2023/06/10 04:45:29;;;;;;;;;;;;;;;18.53;nan;100036.38;4971107;28;19992;-80
2023/06/10 04:47:55;;;;;;;;;;;;;;;18.66;nan;100043.50;4973487;28;19914;-80
2023/06/10 04:50:21;;;;;;;;;;;;;;;18.75;nan;100050.25;4953508;28;19919;-80
2023/06/10 04:52:46;;;;;;;;;;;;;;;18.83;nan;100046.50;4952755;28;19988;-80
2023/06/10 04:55:11;;;;;;;;;;;;;;;18.91;nan;100051.63;4954098;28;19944;-80
2023/06/10 04:57:36;;;;;;;;;;;;;;;18.94;nan;100056.53;4960035;28;19922;-80
2023/06/10 05:00:05;;;;;;;;;;;;;;;19.03;nan;100054.41;4959361;28;19918;-80
2023/06/10 05:02:30;;;;;;;;;;;;;;;19.12;nan;100061.13;4964216;28;19941;-80
2023/06/10 05:04:57;;;;;;;;;;;;;;;19.17;nan;100065.84;4970813;28;19918;-80
2023/06/10 05:07:22;;;;;;;;;;;;;;;19.19;nan;100072.63;4960572;28;20315;-80
2023/06/10 05:09:48;;;;;;;;;;;;;;;19.24;nan;100069.28;4975059;28;19918;-80
2023/06/10 05:12:13;;;;;;;;;;;;;;;19.32;nan;100071.66;4952504;28;19996;-79
2023/06/10 05:14:38;;;;;;;;;;;;;;;19.37;nan;100074.50;4967242;28;19926;-79
2023/06/10 05:17:05;;;;;;;;;;;;;;;19.48;nan;100075.66;4968119;28;19929;-78
2023/06/10 05:19:30;;;;;;;;;;;;;;;19.56;nan;100078.03;4965791;28;19940;-79
2023/06/10 05:21:55;;;;;;;;;;;;;;;19.63;nan;100068.06;4969922;28;19918;-80
2023/06/10 05:24:21;;;;;;;;;;;;;;;19.66;nan;100089.09;4970399;28;19975;-79
2023/06/10 05:26:48;;;;;;;;;;;;;;;19.67;nan;100080.00;4953707;28;20008;-78
2023/06/10 05:29:15;;;;;;;;;;;;;;;19.65;nan;100094.66;4967036;28;19919;-79
2023/06/10 05:31:40;;;;;;;;;;;;;;;19.63;nan;100088.69;4967770;28;19924;-79
2023/06/10 05:34:05;;;;;;;;;;;;;;;19.59;nan;100082.94;4964850;28;20005;-78
2023/06/10 05:36:30;;;;;;;;;;;;;;;19.67;nan;100085.34;4962628;28;20009;-79
2023/06/10 05:38:55;;;;;;;;;;;;;;;19.77;nan;100073.31;4962012;28;19925;-79
2023/06/10 05:41:21;;;;;;;;;;;;;;;19.92;nan;100093.34;4969915;28;19918;-79
2023/06/10 05:43:47;;;;;;;;;;;;;;;20.04;nan;100084.56;4966761;28;20506;-80
2023/06/10 05:46:12;;;;;;;;;;;;;;;20.31;nan;100074.31;4961672;28;19961;-80
2023/06/10 05:48:37;;;;;;;;;;;;;;;;;;4970042;28;19918;-79
2023/06/10 05:51:02;;;;;;;;;;;;;;;21.24;nan;100089.09;4965255;28;20431;-80
2023/06/10 05:53:27;;;;;;;;;;;;;;;21.55;nan;100096.03;4966962;28;19919;-79
2023/06/10 05:55:57;;;;;;;;;;;;;;;21.98;nan;100124.41;4982264;28;20086;-80
2023/06/10 05:58:22;;;;;;;;;;;;;;;22.48;nan;100110.34;4970026;28;19922;-79
2023/06/10 06:00:47;;;;;;;;;;;;;;;22.68;nan;100109.09;4968148;28;19918;-79
2023/06/10 06:03:12;;;;;;;;;;;;;;;23.05;nan;100128.38;4966190;28;19985;-79
2023/06/10 06:05:38;;;;;;;;;;;;;;;23.47;nan;100262.88;4959596;28;19918;-80
2023/06/10 06:08:07;;;;;;;;;;;;;;;23.84;nan;100261.66;4968405;28;19945;-79
2023/06/10 06:10:32;;;;;;;;;;;;;;;24.20;nan;100257.59;4967929;28;19918;-80
2023/06/10 06:12:57;;;;;;;;;;;;;;;24.57;nan;100248.91;4968280;28;20424;-79
2023/06/10 06:15:23;;;;;;;;;;;;;;;25.17;nan;100252.56;4966659;28;20639;-79
2023/06/10 06:17:48;;;;;;;;;;;;;;;25.52;nan;100248.59;4966762;28;19921;-80
2023/06/10 06:20:13;;;;;;;;;;;;;;;25.75;nan;100250.16;4964130;28;19945;-80
2023/06/10 06:22:38;;;;;;;;;;;;;;;26.13;nan;100254.50;4968120;28;19964;-80
2023/06/10 06:25:04;;;;;;;;;;;;;;;26.25;nan;100255.09;4991011;28;20020;-81
2023/06/10 06:27:29;;;;;;;;;;;;;;;26.62;nan;100256.94;4993243;28;19929;-80
2023/06/10 06:29:54;;;;;;;;;;;;;;;27.18;nan;100250.06;4957524;28;19915;-79
2023/06/10 06:32:21;;;;;;;;;;;;;;;27.73;nan;100256.63;4941765;28;19918;-80
2023/06/10 06:34:49;;;;;;;;;;;;;;;28.08;nan;100257.69;4954856;28;19918;-80
2023/06/10 06:37:14;;;;;;;;;;;;;;;28.47;nan;100257.09;4936669;28;20571;-80
2023/06/10 06:39:39;;;;;;;;;;;;;;;28.58;nan;100251.34;4965193;28;20001;-80
2023/06/10 06:42:05;;;;;;;;;;;;;;;28.88;nan;100256.91;4971525;28;19972;-80
2023/06/10 06:44:30;;;;;;;;;;;;;;;29.29;nan;100248.50;4971089;28;19918;-80
2023/06/10 06:46:56;;;;;;;0.10;0.00;;;;;;;29.54;nan;100252.97;4971431;28;19957;-80
2023/06/10 06:49:21;;;;;;;0.00;0.00;;;;;;;29.89;nan;100259.19;4969604;28;20042;-81
2023/06/10 06:51:46;;;;;;;0.00;0.00;;;;;;;30.40;nan;100253.25;4957650;28;20426;-79
2023/06/10 06:54:11;;;;;;;0.00;0.00;;;;;;;31.06;nan;100259.78;4967353;28;20421;-80
2023/06/10 06:56:38;;;;;;;;;;;;;;;31.30;nan;100259.72;4973603;28;20043;-80
2023/06/10 06:59:04;;;;;;;;;;;;;;;31.64;nan;100262.19;4977052;28;19925;-80
2023/06/10 07:01:29;;;;;;;;;;;;;;;31.91;nan;100260.63;4974285;28;19941;-80
2023/06/10 07:03:55;;;;;;;;;;;;;;;31.84;nan;100261.00;4979532;28;20010;-80
2023/06/10 07:06:20;;;;;;;;;;;;;;;31.89;nan;100260.94;4953724;28;20410;-81
2023/06/10 07:08:45;;;;;;;;;;;;;;;32.02;nan;100267.56;4970290;28;19918;-80
2023/06/10 07:11:10;;;;;;;;;;;;;;;31.86;nan;100261.53;4965944;28;19929;-80
2023/06/10 07:13:35;;;;;;;;;;;;;;;31.85;nan;100268.09;4971978;28;19929;-81
2023/06/10 07:16:01;;;;;;;;;;;;;;;31.85;nan;100264.56;4971294;28;20318;-81
2023/06/10 07:18:26;;;;;;;;;;;;;;;31.65;nan;100266.53;4962708;28;20001;-81
2023/06/10 07:20:51;;;;;;;;;;;;;;;31.92;nan;100268.53;4986365;28;19919;-81
2023/06/10 07:23:16;;;;;;;;;;;;;;;32.17;nan;100269.19;4968230;28;19915;-82
2023/06/10 07:25:41;;;;;;;;;;;;;;;32.54;nan;100270.97;4948244;28;19945;-81
2023/06/10 07:28:07;;;;;;;;;;;;;;;32.85;nan;100270.31;4977643;28;19921;-81
2023/06/10 07:30:32;;;;;;;;;;;;;;;33.15;nan;100266.06;4976044;28;19918;-81
2023/06/10 07:32:57;;;;;;;;;;;;;;;33.19;nan;100263.53;4967818;28;19918;-81
2023/06/10 07:35:22;;;;;;;;;;;;;;;33.12;nan;100263.97;4987329;28;20281;-83
2023/06/10 07:37:47;;;;;;;;;;;;;;;32.76;nan;100266.66;4973986;28;19930;-81
2023/06/10 07:40:13;;;;;;;;;;;;;;;32.54;nan;100265.47;4971042;28;19991;-82
2023/06/10 07:42:38;;;;;;;;;;;;;;;32.62;nan;100258.47;4972372;28;19918;-82
2023/06/10 07:45:04;;;;;;;;;;;;;;;31.92;nan;100252.13;4975241;28;19924;-83
2023/06/10 07:47:29;;;;;;;;;;;;;;;32.32;nan;100257.97;4973632;28;20371;-82
2023/06/10 07:49:54;;;;;;;;;;;;;;;32.31;nan;100250.84;4942009;28;19922;-82
2023/06/10 07:52:20;;;;;;;;;;;;;;;31.57;nan;100252.75;4951721;28;19918;-82
2023/06/10 07:54:45;;;;;;;;;;;;;;;31.54;nan;100251.44;4964245;28;19915;-80
2023/06/10 07:57:10;;;;;;;;;;;;;;;31.64;nan;100250.44;4957963;28;19929;-81
2023/06/10 07:59:35;;;;;;;;;;;;;;;31.66;nan;100251.75;4943396;28;19960;-81
2023/06/10 08:02:01;;;;;;;;;;;;;;;31.41;nan;100255.72;4952293;28;19922;-82
2023/06/10 08:04:26;;;;;;;;;;;;;;;31.95;nan;100248.00;4955469;28;19949;-81
2023/06/10 08:06:51;;;;;;;;;;;;;;;32.01;nan;100254.97;4969942;28;19995;-81
2023/06/10 08:09:18;;;;;;;;;;;;;;;31.71;nan;100254.41;4954186;28;19960;-80
2023/06/10 08:11:43;;;;;;;;;;;;;;;31.62;nan;100253.47;4961524;28;20298;-81
2023/06/10 08:14:08;;;;;;;;;;;;;;;31.67;nan;100253.38;4942126;28;19918;-81
2023/06/10 08:16:33;;;;;;;;;;;;;;;31.86;nan;100250.59;4973433;28;19929;-81
2023/06/10 08:18:58;;;;;;;;;;;;;;;31.67;nan;100249.84;4943509;28;19919;-81
2023/06/10 08:21:24;;;;;;;;;;;;;;;32.09;nan;100250.75;4972995;28;19933;-81
2023/06/10 08:23:52;;;;;;;;;;;;;;;32.50;nan;100241.75;4970661;28;19949;-82
2023/06/10 08:26:17;;;;;;;;;;;;;;;32.87;nan;100254.38;4960806;28;19918;-82
2023/06/10 08:28:42;;;;;;;;;;;;;;;33.32;nan;100256.38;4962069;28;19914;-80
2023/06/10 08:31:07;;;;;;;;;;;;;;;33.27;nan;100249.09;4978026;28;19914;-82
2023/06/10 08:33:32;;;;;;;;;;;;;;;32.66;nan;100245.00;4980512;28;20110;-81
2023/06/10 08:35:58;;;;;;;;;;;;;;;32.36;nan;100249.94;4979768;28;19974;-82
2023/06/10 08:38:23;;;;;;;;;;;;;;;32.83;nan;100239.69;4967279;28;19926;-82
2023/06/10 08:40:49;;;;;;;;;;;;;;;32.90;nan;100242.00;4965384;28;19926;-81
2023/06/10 08:43:18;;;;;;;;;;;;;;;33.11;nan;100245.91;4959466;28;19921;-82
2023/06/10 08:45:48;;;;;;;;;;;;;;;33.86;nan;100232.56;4953083;28;19992;-81
2023/06/10 08:48:14;;;;;;;;;;;;;;;33.84;nan;100241.09;4947007;28;19919;-82
2023/06/10 08:50:39;;;;;;;;;;;;;;;34.25;nan;100239.19;4964384;28;19918;-82
2023/06/10 08:53:05;;;;;;;;;;;;;;;33.90;nan;100232.75;4944425;28;19922;-82
2023/06/10 08:55:38;;;;;;;;;;;;;;;33.16;nan;100229.34;4958638;28;20314;-82
2023/06/10 08:58:03;;;;;;;;;;;;;;;33.35;nan;100228.38;4943964;28;19930;-82
2023/06/10 09:00:29;;;;;;;;;;;;;;;33.35;nan;100228.38;4949870;28;19921;-82
2023/06/10 09:02:54;;;;;;;;;;;;;;;34.24;nan;100221.13;4959527;28;20432;-82
2023/06/10 09:05:20;;;;;;;;;;;;;;;34.93;nan;100223.19;4973646;28;19960;-83
2023/06/10 09:07:45;;;;;;;;;;;;;;;34.41;nan;100231.34;4973814;28;19914;-82
2023/06/10 09:10:11;;;;;;;;;;;;;;;35.05;nan;100226.09;4966632;28;20301;-83
2023/06/10 09:12:37;;;;;;;;;;;;;;;35.42;nan;100225.75;4966868;28;19953;-83
2023/06/10 09:15:03;;;;;;;;;;;;;;;35.59;nan;100228.50;5029469;28;19916;-82
2023/06/10 09:17:28;;;;;;;;;;;;;;;35.86;nan;100219.03;5054063;28;19927;-82
2023/06/10 09:19:55;;;;;;;;;;;;;;;35.97;nan;100219.50;5055091;28;19928;-82
2023/06/10 09:22:20;;;;;;;;;;;;;;;36.67;nan;100221.91;5072788;28;20012;-82
2023/06/10 09:24:46;;;;;;;;;;;;;;;36.14;nan;100213.94;5072519;28;19924;-82
2023/06/10 09:27:11;;;;;;;;;;;;;;;35.63;nan;100214.91;5056305;28;19916;-82
2023/06/10 09:29:46;;;;;;;;;;;;;;;35.95;nan;100210.75;5073014;28;19917;-82
2023/06/10 09:32:12;;;;;;;;;;;;;;;35.99;nan;100213.66;5053992;28;19916;-82
2023/06/10 09:34:37;;;;;;;;;;;;;;;36.32;nan;100213.84;5073850;28;19922;-82
2023/06/10 09:37:02;;;;;;;;;;;;;;;36.56;nan;100222.25;5073525;28;19921;-82
2023/06/10 09:39:27;;;;;;;;;;;;;;;36.32;nan;100219.34;5051787;28;19920;-82
2023/06/10 09:41:53;;;;;;;;;;;;;;;36.34;nan;100215.09;5072733;28;19928;-82
2023/06/10 09:44:19;;;;;;;;;;;;;;;34.93;nan;100208.66;5073345;28;19916;-82
2023/06/10 09:46:45;;;;;;;;;;;;;;;34.97;nan;100209.59;5073938;28;20298;-82
2023/06/10 09:49:10;;;;;;;;;;;;;;;35.28;nan;100210.28;5056100;28;19916;-83
2023/06/10 09:51:35;;;;;;;;;;;;;;;35.79;nan;100215.19;5073189;28;20008;-82
2023/06/10 09:54:04;;;;;;;;;;;;;;;36.08;nan;100212.47;5072374;28;19917;-82
2023/06/10 09:56:33;;;;;;;;;;;;;;;36.61;nan;100215.78;5074501;28;20404;-82
2023/06/10 09:58:58;;;;;;;;;;;;;;;36.99;nan;100215.66;5070214;28;19961;-82
2023/06/10 10:01:24;;;;;;;;;;;;;;;36.73;nan;100223.31;5070121;28;19920;-82
2023/06/10 10:03:50;;;;;;;;;;;;;;;36.96;nan;100208.03;5067029;28;19917;-82
2023/06/10 10:06:16;;;;;;;;;;;;;;;37.47;nan;100207.09;5067677;28;19917;-82
2023/06/10 10:08:41;;;;;;;;;;;;;;;37.56;nan;100205.09;5067791;28;19939;-82
2023/06/10 10:11:06;;;;;;;;;;;;;;;37.60;nan;100204.06;5073096;28;20378;-82
2023/06/10 10:13:35;;;;;;;;;;;;;;;38.23;nan;100198.25;5068404;28;19917;-82
2023/06/10 10:16:03;;;;;;;;;;;;;;;39.18;nan;100194.34;5071983;28;19944;-81
2023/06/10 10:18:30;;;;;;;;;;;;;;;39.46;nan;100200.66;4970965;28;19922;-81
2023/06/10 10:20:56;;;;;;;;;;;;;;;39.39;nan;100188.63;4968102;28;19918;-82
2023/06/10 10:23:24;;;;;;;;;;;;;;;39.39;nan;100200.47;4973284;28;19918;-81
2023/06/10 10:25:51;;;;;;;;;;;;;;;39.13;nan;100197.38;4972774;28;19922;-82
2023/06/10 10:28:19;;;;;;;;;;;;;;;38.51;nan;100192.03;4957003;28;19926;-82
2023/06/10 10:30:46;;;;;;;;;;;;;;;37.89;nan;100188.44;4971003;28;20013;-82
2023/06/10 10:33:31;;;;;;;;;;;;;;;37.81;nan;100192.94;4969682;28;19944;-82
2023/06/10 10:35:57;;;;;;;;;;;;;;;37.17;nan;100193.47;4948700;28;19961;-82
2023/06/10 10:38:22;;;;;;;;;;;;;;;37.70;nan;100189.00;4970123;28;19922;-82
2023/06/10 10:40:48;;;;;;;;;;;;;;;37.56;nan;100183.81;4966772;28;20008;-82
2023/06/10 10:43:14;;;;;;;;;;;;;;;37.52;nan;100187.56;4964151;28;20357;-82
2023/06/10 10:45:39;;;;;;;;;;;;;;;37.74;nan;100189.94;4974335;28;19918;-81
2023/06/10 10:48:11;;;;;;;;;;;;;;;36.94;nan;100191.03;4969760;28;20066;-82
2023/06/10 10:50:36;;;;;;;;;;;;;;;36.53;nan;100184.38;4970469;28;19925;-82
2023/06/10 10:53:02;;;;;;;;;;;;;;;36.36;nan;100182.53;4969384;28;19918;-81
2023/06/10 10:55:28;;;;;;;;;;;;;;;36.65;nan;100178.16;4952867;28;19931;-82
2023/06/10 10:58:16;;;;;;;;;;;;;;;36.71;nan;100185.09;4971052;28;19926;-81
2023/06/10 11:00:44;;;;;;;;;;;;;;;37.23;nan;100186.56;4963348;28;19933;-82
2023/06/10 11:03:13;;;;;;;;;;;;;;;35.95;nan;100183.25;4969645;28;19925;-82
2023/06/10 11:05:40;;;;;;;;;;;;;;;36.13;nan;100183.97;4968968;28;19918;-82
2023/06/10 11:08:06;;;;;;;;;;;;;;;35.30;nan;100182.44;4963475;28;19970;-81
2023/06/10 11:10:35;;;;;;;;;;;;;;;36.18;nan;100180.22;4965621;28;20430;-81
2023/06/10 11:13:13;;;;;;;;;;;;;;;37.21;nan;100183.38;4966954;28;19923;-81
2023/06/10 11:15:46;;;;;;;;;;;;;;;37.65;nan;100180.16;4964306;28;19918;-82
2023/06/10 11:18:13;;;;;;;;;;;;;;;38.05;nan;100166.53;4964076;28;19922;-81
2023/06/10 11:20:42;;;;;;;;;;;;;;;38.71;nan;100173.69;4977797;28;20070;-81
2023/06/10 11:23:07;;;;;;;;;;;;;;;38.51;nan;100171.88;4976490;28;20403;-81
2023/06/10 11:25:39;;;;;;;;;;;;;;;38.09;nan;100167.44;4970674;28;19929;-81
2023/06/10 11:28:17;;;;;;;;;;;;;;;38.34;nan;100162.69;4966377;28;19996;-82
2023/06/10 11:30:42;;;;;;;;;;;;;;;38.77;nan;100174.22;4969588;28;20299;-81
2023/06/10 11:33:07;;;;;;;;;;;;;;;39.07;nan;100166.41;4970488;28;19956;-82
2023/06/10 11:35:32;;;;;;;;;;;;;;;38.73;nan;100148.44;4973225;28;20028;-82
2023/06/10 11:37:58;;;;;;;;;;;;;;;39.07;nan;100153.38;4973781;28;19933;-83
2023/06/10 11:40:23;;;;;;;;;;;;;;;38.41;nan;100162.09;4969541;28;19918;-81
2023/06/10 11:42:49;;;;;;;;;;;;;;;37.96;nan;100154.75;4967832;28;20173;-82
2023/06/10 11:45:15;;;;;;;;;;;;;;;38.04;nan;100148.31;4970367;28;19918;-82
2023/06/10 11:47:55;;;;;;;;;;;;;;;38.22;nan;100152.44;4972125;28;19949;-82
2023/06/10 11:50:27;;;;;;;;;;;;;;;38.61;nan;100157.56;4970141;28;19961;-83
2023/06/10 11:52:55;;;;;;;;;;;;;;;38.71;nan;100151.56;4972986;28;19933;-82
2023/06/10 11:55:20;;;;;;;;;;;;;;;37.75;nan;100150.16;4971571;28;20371;-82
2023/06/10 11:57:46;;;;;;;;;;;;;;;35.91;nan;100152.00;4969471;28;20120;-82
2023/06/10 12:00:11;;;;;;;;;;;;;;;34.28;nan;100145.25;4968807;28;19953;-82
2023/06/10 12:02:36;;;;;;;;;;;;;;;33.14;nan;100162.28;5040734;28;19926;-82
2023/06/10 12:05:12;;;;;;;;;;;;;;;33.38;nan;100149.06;4977018;28;19918;-82
2023/06/10 12:07:37;;;;;;;;;;;;;;;35.44;nan;100157.50;4969956;28;20429;-82
2023/06/10 12:10:02;;;;;;;;;;;;;;;36.81;nan;100137.03;4970849;28;19922;-82
2023/06/10 12:12:28;;;;;;;;;;;;;;;37.10;nan;100154.63;4957917;28;19918;-82
2023/06/10 12:14:54;;;;;;;;;;;;;;;36.82;nan;100140.59;4975593;28;19921;-82
2023/06/10 12:17:21;;;;;;;;;;;;;;;37.11;nan;100142.44;4973361;28;19923;-82
2023/06/10 12:19:47;;;;;;;;;;;;;;;36.01;nan;100151.63;4975858;28;19918;-81
2023/06/10 12:22:13;;;;;;;;;;;;;;;34.71;nan;100139.03;4975718;28;20389;-81
2023/06/10 12:25:04;;;;;;;;;;;;;;;33.18;nan;100138.59;4957830;28;19926;-81
2023/06/10 12:27:31;;;;;;;;;;;;;;;33.37;nan;100131.00;4975290;28;20402;-81
2023/06/10 12:30:06;;;;;;;;;;;;;;;33.45;nan;100137.66;4971049;28;20033;-81
2023/06/10 12:32:49;;;;;;;;;;;;;;;34.53;nan;100140.91;4963832;28;19918;-81
2023/06/10 12:35:18;;;;;;;;;;;;;;;34.75;nan;100130.94;4957401;28;19914;-81
2023/06/10 12:38:00;;;;;;;;;;;;;;;34.55;nan;100135.09;4938637;29;19923;-81
2023/06/10 12:40:31;;;;;;;;;;;;;;;35.12;nan;100145.16;4959123;28;19940;-82
2023/06/10 12:42:56;;;;;;;;;;;;;;;34.74;nan;100137.56;4971061;28;19918;-82
2023/06/10 12:45:29;;;;;;;;;;;;;;;34.60;nan;100143.22;4971450;28;19987;-82
2023/06/10 12:48:04;;;;;;;;;;;;;;;33.76;nan;100143.13;4968700;28;19918;-82
2023/06/10 12:50:30;;;;;;;;;;;;;;;33.70;nan;100141.66;4970088;28;20365;-82
2023/06/10 12:52:55;;;;;;;;;;;;;;;33.84;nan;100147.84;4955454;29;19950;-82
2023/06/10 12:55:20;;;;;;;;;;;;;;;33.60;nan;100148.22;4957509;28;19993;-82
2023/06/10 12:57:49;;;;;;;;;;;;;;;33.68;nan;100140.34;4967902;28;19967;-82